Gillette Campbell County Airport
KGCC : now visible

Airfield :











YOU CAN JOIN US ON...

 
LOGIN :

Register | Disclaimer

   EN    FR    IT 

 









Legend :    VFR   Marginal VFR   IFR   Intensive IFR   Very Intensive IFR
Visi :
Ceiling :
>= 8 km
>= 3000ft
5 to 8 km
1000 to 3000 ft
1500m to 5 km
500 to 1000 ft
800 to 1500m
200 to 500 ft
< 800m
< 200 ft
Symbols :   Thunderstorms  Fog  Heavy snow  Heavy precipitations  Wind > 20 kt







- Airport Elevation : 4365 ft


KGCC - Gillette Campbell County

CURRENT METAR :
  • 210953Z AUTO 12008KT 7SM SCT030 BKN036 OVC046 01/01 A2981 RMK AO2 SLP104 T00110011

EXPIRED METARs :
  • 210943Z AUTO 12007KT 6SM BR FEW009 SCT027 OVC034 01/01 A2981 RMK AO2 T00110011
  • 210933Z AUTO 12007KT 7SM SCT009 BKN027 OVC032 01/01 A2981 RMK AO2 T00110011
  • 210853Z AUTO 13009KT 10SM BKN011 OVC037 02/01 A2983 RMK AO2 SLP109 T00170006 56007
  • 210850Z AUTO 13010KT 10SM BKN011 BKN037 OVC050 02/01 A2983 RMK AO2
  • 210753Z AUTO 14010KT 10SM OVC044 01/01 A2983 RMK AO2 SLP115 T00110006

TAF KGCC
Valid from the 21 at 08:00 until the 22 at 06:00 UTC


210812Z 2108/2206 14011KT P6SM BKN040
FM211000 14010KT 6SM -SHRASN BR BKN015
FM211200 13008KT 6SM -RA BR OVC008
FM211800 06012KT P6SM -RA OVC006
KZDV FIR / North America



MET'MAP, your aeronautical weather chart ! - Copyright ORBIFLY December 2007 - Disclaimer

ORBIFLY MET'MAP TEAM :

Programming & Development : Alexandra Zaïnal
Concept & Development : Baudouin d'Aumeries
Co-Development & Prog : Marc-Olivier Méhu
Technical & hardware support : Manuel Goepfert

Contact : metmap@orbifly.com




SOURCES & CREDITS :

   NOAA       Earth
Advisory